This is the latest recevied weather packets stored in our database for station/object DB0ASF-4. If no packets are shown the sender has not sent any weather packets the latest 1 day(s).
| Time | Temp. | Humidity | Pressure | Rain* | Wind** | Luminosity | Snow |
|---|---|---|---|---|---|---|---|
| 1777990158 | 17.78° C | 67% | 1012.2 hPa | 1.02 mm | 0 m/s | - | - |
| 1777989558 | 18.89° C | 62% | 1012 hPa | 1.02 mm | 0 m/s | - | - |
| 1777988958 | 20.56° C | 56% | 1012 hPa | 0 mm | 0 m/s | - | - |
| 1777988358 | 21.67° C | 52% | 1011.9 hPa | 0 mm | 0 m/s | - | - |
| 1777987758 | 22.78° C | 51% | 1011.9 hPa | 0 mm | 0 m/s | - | - |
| 1777987158 | 22.78° C | 49% | 1011.9 hPa | 0 mm | 0 m/s | - | - |
| 1777986558 | 22.78° C | 49% | 1011.9 hPa | 0 mm | 0 m/s | - | - |
| 1777985958 | 23.33° C | 47% | 1012 hPa | 0 mm | 0 m/s | - | - |
| 1777985358 | 23.33° C | 47% | 1012.2 hPa | 0 mm | 0 m/s | - | - |
| 1777984758 | 23.89° C | 45% | 1012 hPa | 0 mm | 0 m/s | - | - |
| 1777984158 | 24.44° C | 46% | 1012.2 hPa | 0 mm | 0 m/s | - | - |
| 1777983558 | 24.44° C | 46% | 1012.4 hPa | 0 mm | 0 m/s | - | - |
| 1777982958 | 24.44° C | 47% | 1012.4 hPa | 0 mm | 0 m/s | - | - |
| 1777982358 | 23.89° C | 49% | 1012.4 hPa | 0 mm | 0.45 m/s, 0° | - | - |
| 1777981758 | 23.89° C | 49% | 1012.5 hPa | 0 mm | 0 m/s | - | - |
| 1777981158 | 23.89° C | 48% | 1012.5 hPa | 0 mm | 0 m/s | - | - |
| 1777980558 | 23.89° C | 49% | 1012.5 hPa | 0 mm | 0 m/s | - | - |
| 1777979958 | 24.44° C | 48% | 1012.7 hPa | 0 mm | 2.24 m/s, 315° | - | - |
| 1777979358 | 24.44° C | 48% | 1012.9 hPa | 0 mm | 0 m/s | - | - |
| 1777978758 | 23.89° C | 48% | 1013 hPa | 0 mm | 0 m/s | - | - |
| 1777978158 | 23.33° C | 50% | 1013 hPa | 0 mm | 1.34 m/s, 292° | - | - |
| 1777977558 | 23.33° C | 50% | 1013.2 hPa | 0 mm | 0 m/s | - | - |
| 1777976958 | 22.78° C | 52% | 1013.2 hPa | 0 mm | 0 m/s | - | - |
| 1777976358 | 22.78° C | 54% | 1013.5 hPa | 0 mm | 0 m/s | - | - |
| 1777975758 | 22.22° C | 54% | 1013.4 hPa | 0 mm | 0 m/s | - | - |
* Rain latest hour (hover to see other rain measurements)
** Current wind speed in m/s (hover to see current wind gust speed)